sensor_id;sensor_type;location;lat;lon;timestamp;temperature;humidity
73112;HTU21D;61301;51.956;5.876;2023-08-30T00:00:55;18.82;52.99
73112;HTU21D;61301;51.956;5.876;2023-08-30T00:03:21;18.86;52.85
73112;HTU21D;61301;51.956;5.876;2023-08-30T00:05:47;18.87;52.75
73112;HTU21D;61301;51.956;5.876;2023-08-30T00:08:13;18.82;52.73
73112;HTU21D;61301;51.956;5.876;2023-08-30T00:10:47;18.80;52.78
73112;HTU21D;61301;51.956;5.876;2023-08-30T00:13:13;18.73;53.01
73112;HTU21D;61301;51.956;5.876;2023-08-30T00:15:39;18.77;53.04
73112;HTU21D;61301;51.956;5.876;2023-08-30T00:18:05;18.77;53.01
73112;HTU21D;61301;51.956;5.876;2023-08-30T00:20:32;18.77;52.90
73112;HTU21D;61301;51.956;5.876;2023-08-30T00:22:58;18.79;52.83
73112;HTU21D;61301;51.956;5.876;2023-08-30T00:25:24;18.83;52.89
73112;HTU21D;61301;51.956;5.876;2023-08-30T00:27:50;18.82;52.88
73112;HTU21D;61301;51.956;5.876;2023-08-30T00:30:16;18.81;52.88
73112;HTU21D;61301;51.956;5.876;2023-08-30T00:32:42;18.84;52.83
73112;HTU21D;61301;51.956;5.876;2023-08-30T00:35:08;18.84;52.84
73112;HTU21D;61301;51.956;5.876;2023-08-30T00:37:34;18.84;52.75
73112;HTU21D;61301;51.956;5.876;2023-08-30T00:40:00;18.89;52.89
73112;HTU21D;61301;51.956;5.876;2023-08-30T00:42:27;18.91;52.79
73112;HTU21D;61301;51.956;5.876;2023-08-30T00:44:53;18.93;52.75
73112;HTU21D;61301;51.956;5.876;2023-08-30T00:47:20;18.89;52.73
73112;HTU21D;61301;51.956;5.876;2023-08-30T00:49:46;18.86;52.72
73112;HTU21D;61301;51.956;5.876;2023-08-30T00:52:12;18.84;52.69
73112;HTU21D;61301;51.956;5.876;2023-08-30T00:54:39;18.81;52.69
73112;HTU21D;61301;51.956;5.876;2023-08-30T00:57:06;18.83;52.59
73112;HTU21D;61301;51.956;5.876;2023-08-30T00:59:33;18.78;52.57
73112;HTU21D;61301;51.956;5.876;2023-08-30T01:02:00;18.68;52.78
73112;HTU21D;61301;51.956;5.876;2023-08-30T01:04:29;18.69;52.64
73112;HTU21D;61301;51.956;5.876;2023-08-30T01:06:55;18.62;52.85
73112;HTU21D;61301;51.956;5.876;2023-08-30T01:09:22;18.55;52.99
73112;HTU21D;61301;51.956;5.876;2023-08-30T01:12:10;18.57;52.98
73112;HTU21D;61301;51.956;5.876;2023-08-30T01:15:20;18.55;52.95
73112;HTU21D;61301;51.956;5.876;2023-08-30T01:17:52;18.50;52.97
73112;HTU21D;61301;51.956;5.876;2023-08-30T01:20:19;18.43;52.98
73112;HTU21D;61301;51.956;5.876;2023-08-30T01:22:58;18.54;53.27
73112;HTU21D;61301;51.956;5.876;2023-08-30T01:27:52;18.61;53.17
73112;HTU21D;61301;51.956;5.876;2023-08-30T01:30:19;18.61;53.02
73112;HTU21D;61301;51.956;5.876;2023-08-30T01:32:46;18.58;52.98
73112;HTU21D;61301;51.956;5.876;2023-08-30T01:35:14;18.53;53.06
73112;HTU21D;61301;51.956;5.876;2023-08-30T01:37:45;18.53;52.88
73112;HTU21D;61301;51.956;5.876;2023-08-30T01:40:13;18.49;52.82
73112;HTU21D;61301;51.956;5.876;2023-08-30T01:42:42;18.38;53.05
73112;HTU21D;61301;51.956;5.876;2023-08-30T01:45:11;18.41;52.98
73112;HTU21D;61301;51.956;5.876;2023-08-30T01:47:42;18.36;52.98
73112;HTU21D;61301;51.956;5.876;2023-08-30T01:50:10;18.29;53.00
73112;HTU21D;61301;51.956;5.876;2023-08-30T01:52:37;18.21;53.10
73112;HTU21D;61301;51.956;5.876;2023-08-30T01:55:08;18.10;53.21
73112;HTU21D;61301;51.956;5.876;2023-08-30T01:57:34;18.05;53.36
73112;HTU21D;61301;51.956;5.876;2023-08-30T02:00:00;17.95;53.69
73112;HTU21D;61301;51.956;5.876;2023-08-30T02:02:30;17.90;53.88
73112;HTU21D;61301;51.956;5.876;2023-08-30T02:04:56;17.90;53.69
73112;HTU21D;61301;51.956;5.876;2023-08-30T02:07:28;17.89;53.78
73112;HTU21D;61301;51.956;5.876;2023-08-30T02:10:02;17.84;53.95
73112;HTU21D;61301;51.956;5.876;2023-08-30T02:12:39;17.81;54.19
73112;HTU21D;61301;51.956;5.876;2023-08-30T02:15:05;17.95;53.84
73112;HTU21D;61301;51.956;5.876;2023-08-30T02:17:33;17.83;54.13
73112;HTU21D;61301;51.956;5.876;2023-08-30T02:20:00;17.93;53.88
73112;HTU21D;61301;51.956;5.876;2023-08-30T02:22:27;17.99;53.79
73112;HTU21D;61301;51.956;5.876;2023-08-30T02:24:53;17.95;54.36
73112;HTU21D;61301;51.956;5.876;2023-08-30T02:27:20;17.97;54.43
73112;HTU21D;61301;51.956;5.876;2023-08-30T02:29:46;18.06;54.55
73112;HTU21D;61301;51.956;5.876;2023-08-30T02:32:12;18.17;54.83
73112;HTU21D;61301;51.956;5.876;2023-08-30T02:34:38;18.28;54.75
73112;HTU21D;61301;51.956;5.876;2023-08-30T02:37:04;18.36;54.68
73112;HTU21D;61301;51.956;5.876;2023-08-30T02:39:30;18.46;54.23
73112;HTU21D;61301;51.956;5.876;2023-08-30T02:41:56;18.42;54.18
73112;HTU21D;61301;51.956;5.876;2023-08-30T02:44:22;18.47;54.08
73112;HTU21D;61301;51.956;5.876;2023-08-30T02:46:48;18.37;54.51
73112;HTU21D;61301;51.956;5.876;2023-08-30T02:49:14;18.40;54.33
73112;HTU21D;61301;51.956;5.876;2023-08-30T02:51:40;18.36;54.36
73112;HTU21D;61301;51.956;5.876;2023-08-30T02:54:06;18.38;54.26
73112;HTU21D;61301;51.956;5.876;2023-08-30T02:56:32;18.36;54.39
73112;HTU21D;61301;51.956;5.876;2023-08-30T02:58:58;18.33;54.71
73112;HTU21D;61301;51.956;5.876;2023-08-30T03:01:25;18.32;54.89
73112;HTU21D;61301;51.956;5.876;2023-08-30T03:03:51;18.27;55.06
73112;HTU21D;61301;51.956;5.876;2023-08-30T03:06:18;18.20;55.37
73112;HTU21D;61301;51.956;5.876;2023-08-30T03:08:44;18.21;55.29
73112;HTU21D;61301;51.956;5.876;2023-08-30T03:11:12;18.23;55.23
73112;HTU21D;61301;51.956;5.876;2023-08-30T03:13:44;18.25;55.24
73112;HTU21D;61301;51.956;5.876;2023-08-30T03:16:11;18.25;55.32
73112;HTU21D;61301;51.956;5.876;2023-08-30T03:18:38;18.32;55.18
73112;HTU21D;61301;51.956;5.876;2023-08-30T03:21:04;18.32;55.26
73112;HTU21D;61301;51.956;5.876;2023-08-30T03:23:31;18.25;55.53
73112;HTU21D;61301;51.956;5.876;2023-08-30T03:25:58;18.32;55.32
73112;HTU21D;61301;51.956;5.876;2023-08-30T03:28:24;18.27;55.54
73112;HTU21D;61301;51.956;5.876;2023-08-30T03:30:50;18.12;56.26
73112;HTU21D;61301;51.956;5.876;2023-08-30T03:33:18;18.10;56.32
73112;HTU21D;61301;51.956;5.876;2023-08-30T03:35:44;18.11;56.28
73112;HTU21D;61301;51.956;5.876;2023-08-30T03:38:10;18.10;56.59
73112;HTU21D;61301;51.956;5.876;2023-08-30T03:40:36;18.06;56.85
73112;HTU21D;61301;51.956;5.876;2023-08-30T03:43:02;18.11;56.61
73112;HTU21D;61301;51.956;5.876;2023-08-30T03:45:29;18.14;56.42
73112;HTU21D;61301;51.956;5.876;2023-08-30T03:47:55;18.10;56.35
73112;HTU21D;61301;51.956;5.876;2023-08-30T03:50:21;18.11;56.16
73112;HTU21D;61301;51.956;5.876;2023-08-30T03:52:46;18.07;56.08
73112;HTU21D;61301;51.956;5.876;2023-08-30T03:55:13;18.05;55.92
73112;HTU21D;61301;51.956;5.876;2023-08-30T03:57:38;18.04;55.85
73112;HTU21D;61301;51.956;5.876;2023-08-30T04:00:05;17.98;56.13
73112;HTU21D;61301;51.956;5.876;2023-08-30T04:02:40;17.95;56.11
73112;HTU21D;61301;51.956;5.876;2023-08-30T04:05:06;17.91;56.31
73112;HTU21D;61301;51.956;5.876;2023-08-30T04:07:37;17.94;56.15
73112;HTU21D;61301;51.956;5.876;2023-08-30T04:10:04;17.89;56.07
73112;HTU21D;61301;51.956;5.876;2023-08-30T04:12:33;17.82;56.16
73112;HTU21D;61301;51.956;5.876;2023-08-30T04:15:01;17.80;56.13
73112;HTU21D;61301;51.956;5.876;2023-08-30T04:17:28;17.77;56.26
73112;HTU21D;61301;51.956;5.876;2023-08-30T04:19:54;17.69;56.23
73112;HTU21D;61301;51.956;5.876;2023-08-30T04:22:20;17.68;56.23
73112;HTU21D;61301;51.956;5.876;2023-08-30T04:24:47;17.66;56.16
73112;HTU21D;61301;51.956;5.876;2023-08-30T04:27:13;17.66;56.14
73112;HTU21D;61301;51.956;5.876;2023-08-30T04:29:39;17.65;56.17
73112;HTU21D;61301;51.956;5.876;2023-08-30T04:32:05;17.64;56.13
73112;HTU21D;61301;51.956;5.876;2023-08-30T04:34:32;17.62;56.09
73112;HTU21D;61301;51.956;5.876;2023-08-30T04:36:58;17.59;56.05
73112;HTU21D;61301;51.956;5.876;2023-08-30T04:39:24;17.55;56.03
73112;HTU21D;61301;51.956;5.876;2023-08-30T04:41:51;17.52;55.98
73112;HTU21D;61301;51.956;5.876;2023-08-30T04:44:18;17.47;56.13
73112;HTU21D;61301;51.956;5.876;2023-08-30T04:46:45;17.46;56.14
73112;HTU21D;61301;51.956;5.876;2023-08-30T04:49:12;17.46;56.10
73112;HTU21D;61301;51.956;5.876;2023-08-30T04:51:38;17.45;56.16
73112;HTU21D;61301;51.956;5.876;2023-08-30T04:54:05;17.44;56.18
73112;HTU21D;61301;51.956;5.876;2023-08-30T04:56:31;17.48;56.16
73112;HTU21D;61301;51.956;5.876;2023-08-30T04:58:57;17.49;56.09
73112;HTU21D;61301;51.956;5.876;2023-08-30T05:01:24;17.52;55.97
73112;HTU21D;61301;51.956;5.876;2023-08-30T05:03:53;17.55;56.03
73112;HTU21D;61301;51.956;5.876;2023-08-30T05:06:19;17.50;56.03
73112;HTU21D;61301;51.956;5.876;2023-08-30T05:08:45;17.47;55.98
73112;HTU21D;61301;51.956;5.876;2023-08-30T05:11:11;17.44;55.91
73112;HTU21D;61301;51.956;5.876;2023-08-30T05:13:38;17.43;55.87
73112;HTU21D;61301;51.956;5.876;2023-08-30T05:16:04;17.39;55.99
73112;HTU21D;61301;51.956;5.876;2023-08-30T05:18:32;17.38;56.03
73112;HTU21D;61301;51.956;5.876;2023-08-30T05:20:58;17.40;56.02
73112;HTU21D;61301;51.956;5.876;2023-08-30T05:23:24;17.40;56.01
73112;HTU21D;61301;51.956;5.876;2023-08-30T05:25:50;17.38;56.03
73112;HTU21D;61301;51.956;5.876;2023-08-30T05:28:17;17.43;56.05
73112;HTU21D;61301;51.956;5.876;2023-08-30T05:30:44;17.47;55.97
73112;HTU21D;61301;51.956;5.876;2023-08-30T05:33:16;17.49;56.01
73112;HTU21D;61301;51.956;5.876;2023-08-30T05:36:03;17.48;56.17
73112;HTU21D;61301;51.956;5.876;2023-08-30T05:38:49;17.48;56.07
73112;HTU21D;61301;51.956;5.876;2023-08-30T05:41:29;17.47;56.13
73112;HTU21D;61301;51.956;5.876;2023-08-30T05:43:55;17.50;56.04
73112;HTU21D;61301;51.956;5.876;2023-08-30T05:46:21;17.51;56.03
73112;HTU21D;61301;51.956;5.876;2023-08-30T05:48:47;17.56;56.23
73112;HTU21D;61301;51.956;5.876;2023-08-30T05:51:13;17.61;56.61
73112;HTU21D;61301;51.956;5.876;2023-08-30T05:53:39;17.62;56.78
73112;HTU21D;61301;51.956;5.876;2023-08-30T05:56:05;17.68;57.24
73112;HTU21D;61301;51.956;5.876;2023-08-30T05:58:31;17.73;58.05
73112;HTU21D;61301;51.956;5.876;2023-08-30T06:00:58;17.73;58.30
73112;HTU21D;61301;51.956;5.876;2023-08-30T06:03:26;17.77;58.67
73112;HTU21D;61301;51.956;5.876;2023-08-30T06:05:52;17.79;59.21
73112;HTU21D;61301;51.956;5.876;2023-08-30T06:08:18;17.88;59.58
73112;HTU21D;61301;51.956;5.876;2023-08-30T06:10:44;17.92;59.67
73112;HTU21D;61301;51.956;5.876;2023-08-30T06:13:11;17.97;59.78
73112;HTU21D;61301;51.956;5.876;2023-08-30T06:15:37;18.06;59.82
73112;HTU21D;61301;51.956;5.876;2023-08-30T06:18:04;18.11;59.82
73112;HTU21D;61301;51.956;5.876;2023-08-30T06:20:30;18.17;60.02
73112;HTU21D;61301;51.956;5.876;2023-08-30T06:23:03;18.24;59.93
73112;HTU21D;61301;51.956;5.876;2023-08-30T06:25:29;18.27;59.49
73112;HTU21D;61301;51.956;5.876;2023-08-30T06:27:56;18.34;59.25
73112;HTU21D;61301;51.956;5.876;2023-08-30T06:30:23;18.40;59.23
73112;HTU21D;61301;51.956;5.876;2023-08-30T06:32:49;18.47;59.24
73112;HTU21D;61301;51.956;5.876;2023-08-30T06:35:15;18.50;59.11
73112;HTU21D;61301;51.956;5.876;2023-08-30T06:37:41;18.58;58.99
73112;HTU21D;61301;51.956;5.876;2023-08-30T06:40:08;18.63;59.11
73112;HTU21D;61301;51.956;5.876;2023-08-30T06:42:34;18.68;59.03
73112;HTU21D;61301;51.956;5.876;2023-08-30T06:45:01;18.71;58.98
73112;HTU21D;61301;51.956;5.876;2023-08-30T06:47:28;18.76;58.87
73112;HTU21D;61301;51.956;5.876;2023-08-30T06:49:54;18.83;58.63
73112;HTU21D;61301;51.956;5.876;2023-08-30T06:52:20;18.88;58.62
73112;HTU21D;61301;51.956;5.876;2023-08-30T06:54:46;18.94;58.48
73112;HTU21D;61301;51.956;5.876;2023-08-30T06:57:12;18.98;58.41
73112;HTU21D;61301;51.956;5.876;2023-08-30T06:59:38;18.96;58.48
73112;HTU21D;61301;51.956;5.876;2023-08-30T07:02:04;18.98;58.38
73112;HTU21D;61301;51.956;5.876;2023-08-30T07:04:30;19.10;58.18
73112;HTU21D;61301;51.956;5.876;2023-08-30T07:06:56;19.09;58.16
73112;HTU21D;61301;51.956;5.876;2023-08-30T07:09:22;19.11;58.23
73112;HTU21D;61301;51.956;5.876;2023-08-30T07:11:57;19.11;58.24
73112;HTU21D;61301;51.956;5.876;2023-08-30T07:14:23;19.14;58.14
73112;HTU21D;61301;51.956;5.876;2023-08-30T07:16:49;19.18;58.36
73112;HTU21D;61301;51.956;5.876;2023-08-30T07:19:16;19.17;58.50
73112;HTU21D;61301;51.956;5.876;2023-08-30T07:21:42;19.17;58.66
73112;HTU21D;61301;51.956;5.876;2023-08-30T07:24:09;19.15;59.05
73112;HTU21D;61301;51.956;5.876;2023-08-30T07:26:35;19.10;59.24
73112;HTU21D;61301;51.956;5.876;2023-08-30T07:29:02;19.09;59.25
73112;HTU21D;61301;51.956;5.876;2023-08-30T07:31:33;19.02;59.87
73112;HTU21D;61301;51.956;5.876;2023-08-30T07:33:59;18.95;60.21
73112;HTU21D;61301;51.956;5.876;2023-08-30T07:36:26;18.88;60.28
73112;HTU21D;61301;51.956;5.876;2023-08-30T07:38:54;18.82;60.69
73112;HTU21D;61301;51.956;5.876;2023-08-30T07:41:20;18.84;60.64
73112;HTU21D;61301;51.956;5.876;2023-08-30T07:43:45;18.84;60.80
73112;HTU21D;61301;51.956;5.876;2023-08-30T07:46:11;18.70;61.48
73112;HTU21D;61301;51.956;5.876;2023-08-30T07:48:37;18.67;61.54
73112;HTU21D;61301;51.956;5.876;2023-08-30T07:51:03;18.64;61.51
73112;HTU21D;61301;51.956;5.876;2023-08-30T07:53:30;18.62;61.79
73112;HTU21D;61301;51.956;5.876;2023-08-30T07:55:56;18.59;61.59
73112;HTU21D;61301;51.956;5.876;2023-08-30T07:58:23;18.64;61.85
73112;HTU21D;61301;51.956;5.876;2023-08-30T08:00:52;18.61;62.14
73112;HTU21D;61301;51.956;5.876;2023-08-30T08:03:20;18.58;62.08
73112;HTU21D;61301;51.956;5.876;2023-08-30T08:05:46;18.53;62.41
73112;HTU21D;61301;51.956;5.876;2023-08-30T08:08:12;18.54;62.54
73112;HTU21D;61301;51.956;5.876;2023-08-30T08:10:42;18.52;62.63
73112;HTU21D;61301;51.956;5.876;2023-08-30T08:13:08;18.49;62.48
73112;HTU21D;61301;51.956;5.876;2023-08-30T08:15:34;18.44;62.78
73112;HTU21D;61301;51.956;5.876;2023-08-30T08:18:01;18.46;63.02
73112;HTU21D;61301;51.956;5.876;2023-08-30T08:20:28;18.41;63.42
73112;HTU21D;61301;51.956;5.876;2023-08-30T08:22:55;18.37;63.50
73112;HTU21D;61301;51.956;5.876;2023-08-30T08:25:21;18.29;63.90
73112;HTU21D;61301;51.956;5.876;2023-08-30T08:27:49;18.33;63.85
73112;HTU21D;61301;51.956;5.876;2023-08-30T08:30:16;18.29;64.27
73112;HTU21D;61301;51.956;5.876;2023-08-30T08:32:46;18.22;64.66
73112;HTU21D;61301;51.956;5.876;2023-08-30T08:35:13;18.20;64.93
73112;HTU21D;61301;51.956;5.876;2023-08-30T08:37:39;18.20;65.16
73112;HTU21D;61301;51.956;5.876;2023-08-30T08:40:05;18.19;65.47
73112;HTU21D;61301;51.956;5.876;2023-08-30T08:42:35;18.21;65.43
73112;HTU21D;61301;51.956;5.876;2023-08-30T08:45:05;18.21;65.70
73112;HTU21D;61301;51.956;5.876;2023-08-30T08:47:31;18.24;65.62
73112;HTU21D;61301;51.956;5.876;2023-08-30T08:50:00;18.18;66.20
73112;HTU21D;61301;51.956;5.876;2023-08-30T08:52:29;18.15;66.25
73112;HTU21D;61301;51.956;5.876;2023-08-30T08:54:55;18.23;66.15
73112;HTU21D;61301;51.956;5.876;2023-08-30T08:57:22;18.18;66.51
73112;HTU21D;61301;51.956;5.876;2023-08-30T08:59:48;18.12;66.78
73112;HTU21D;61301;51.956;5.876;2023-08-30T09:02:16;18.11;66.87
73112;HTU21D;61301;51.956;5.876;2023-08-30T09:04:42;18.17;66.72
73112;HTU21D;61301;51.956;5.876;2023-08-30T09:07:08;18.19;66.99
73112;HTU21D;61301;51.956;5.876;2023-08-30T09:09:34;18.32;66.59
73112;HTU21D;61301;51.956;5.876;2023-08-30T09:12:00;18.33;66.78
73112;HTU21D;61301;51.956;5.876;2023-08-30T09:14:26;18.35;66.81
73112;HTU21D;61301;51.956;5.876;2023-08-30T09:16:56;18.46;66.58
73112;HTU21D;61301;51.956;5.876;2023-08-30T09:19:22;18.47;66.49
73112;HTU21D;61301;51.956;5.876;2023-08-30T09:21:56;18.48;66.78
73112;HTU21D;61301;51.956;5.876;2023-08-30T09:24:22;18.67;66.15
73112;HTU21D;61301;51.956;5.876;2023-08-30T09:26:50;18.64;66.42
73112;HTU21D;61301;51.956;5.876;2023-08-30T09:29:17;18.53;66.73
73112;HTU21D;61301;51.956;5.876;2023-08-30T09:31:44;18.66;66.29
73112;HTU21D;61301;51.956;5.876;2023-08-30T09:34:10;18.67;66.51
73112;HTU21D;61301;51.956;5.876;2023-08-30T09:36:41;18.59;66.80
73112;HTU21D;61301;51.956;5.876;2023-08-30T09:39:08;18.65;66.69
73112;HTU21D;61301;51.956;5.876;2023-08-30T09:41:45;18.65;66.87
73112;HTU21D;61301;51.956;5.876;2023-08-30T09:46:50;18.78;66.49
73112;HTU21D;61301;51.956;5.876;2023-08-30T09:49:25;18.79;66.41
73112;HTU21D;61301;51.956;5.876;2023-08-30T09:51:52;18.73;66.76
73112;HTU21D;61301;51.956;5.876;2023-08-30T09:54:20;18.71;66.85
73112;HTU21D;61301;51.956;5.876;2023-08-30T09:56:47;18.83;66.63
73112;HTU21D;61301;51.956;5.876;2023-08-30T09:59:14;18.87;66.75
73112;HTU21D;61301;51.956;5.876;2023-08-30T10:01:42;18.98;66.63
73112;HTU21D;61301;51.956;5.876;2023-08-30T10:04:10;19.05;66.31
73112;HTU21D;61301;51.956;5.876;2023-08-30T10:06:40;19.17;66.30
73112;HTU21D;61301;51.956;5.876;2023-08-30T10:09:08;19.24;66.38
73112;HTU21D;61301;51.956;5.876;2023-08-30T10:11:35;19.27;66.49
73112;HTU21D;61301;51.956;5.876;2023-08-30T10:14:08;19.28;66.53
73112;HTU21D;61301;51.956;5.876;2023-08-30T10:16:41;19.36;66.29
73112;HTU21D;61301;51.956;5.876;2023-08-30T10:19:14;19.37;66.28
73112;HTU21D;61301;51.956;5.876;2023-08-30T10:21:43;19.39;66.05
73112;HTU21D;61301;51.956;5.876;2023-08-30T10:24:12;19.45;66.26
73112;HTU21D;61301;51.956;5.876;2023-08-30T10:26:39;19.45;66.19
73112;HTU21D;61301;51.956;5.876;2023-08-30T10:29:08;19.65;66.16
73112;HTU21D;61301;51.956;5.876;2023-08-30T10:31:37;19.74;65.95
73112;HTU21D;61301;51.956;5.876;2023-08-30T10:34:14;19.90;65.67
73112;HTU21D;61301;51.956;5.876;2023-08-30T10:36:56;19.95;65.83
73112;HTU21D;61301;51.956;5.876;2023-08-30T10:39:36;19.91;65.91
73112;HTU21D;61301;51.956;5.876;2023-08-30T10:42:09;20.00;65.92
73112;HTU21D;61301;51.956;5.876;2023-08-30T10:47:26;20.36;65.57
73112;HTU21D;61301;51.956;5.876;2023-08-30T10:49:56;20.53;65.45
73112;HTU21D;61301;51.956;5.876;2023-08-30T10:52:24;20.75;64.95
73112;HTU21D;61301;51.956;5.876;2023-08-30T10:54:51;20.74;64.93
73112;HTU21D;61301;51.956;5.876;2023-08-30T10:57:24;20.90;65.04
73112;HTU21D;61301;51.956;5.876;2023-08-30T11:02:33;21.07;64.31
73112;HTU21D;61301;51.956;5.876;2023-08-30T11:05:00;21.08;64.26
73112;HTU21D;61301;51.956;5.876;2023-08-30T11:07:28;21.22;64.11
73112;HTU21D;61301;51.956;5.876;2023-08-30T11:09:55;21.39;63.81
73112;HTU21D;61301;51.956;5.876;2023-08-30T11:12:21;21.54;63.81
73112;HTU21D;61301;51.956;5.876;2023-08-30T11:14:54;21.74;63.42
73112;HTU21D;61301;51.956;5.876;2023-08-30T11:17:20;21.83;63.14
73112;HTU21D;61301;51.956;5.876;2023-08-30T11:19:50;21.87;63.02
73112;HTU21D;61301;51.956;5.876;2023-08-30T11:22:17;21.85;62.86
73112;HTU21D;61301;51.956;5.876;2023-08-30T11:24:43;21.78;62.53
73112;HTU21D;61301;51.956;5.876;2023-08-30T11:27:11;21.76;62.37
73112;HTU21D;61301;51.956;5.876;2023-08-30T11:29:39;21.77;62.03
73112;HTU21D;61301;51.956;5.876;2023-08-30T11:32:07;21.70;61.34
73112;HTU21D;61301;51.956;5.876;2023-08-30T11:34:33;21.64;60.77
73112;HTU21D;61301;51.956;5.876;2023-08-30T11:36:59;21.65;60.25
73112;HTU21D;61301;51.956;5.876;2023-08-30T11:39:28;21.46;58.32
73112;HTU21D;61301;51.956;5.876;2023-08-30T11:41:55;21.40;58.61
73112;HTU21D;61301;51.956;5.876;2023-08-30T11:44:28;21.59;58.46
73112;HTU21D;61301;51.956;5.876;2023-08-30T11:46:58;21.69;58.23
73112;HTU21D;61301;51.956;5.876;2023-08-30T11:49:25;21.75;57.74
73112;HTU21D;61301;51.956;5.876;2023-08-30T11:51:52;22.18;57.45
73112;HTU21D;61301;51.956;5.876;2023-08-30T11:54:20;22.58;57.42
73112;HTU21D;61301;51.956;5.876;2023-08-30T11:56:46;22.90;55.52
73112;HTU21D;61301;51.956;5.876;2023-08-30T11:59:19;23.22;56.00
73112;HTU21D;61301;51.956;5.876;2023-08-30T12:01:47;23.45;55.86
73112;HTU21D;61301;51.956;5.876;2023-08-30T12:04:13;23.47;54.88
73112;HTU21D;61301;51.956;5.876;2023-08-30T12:06:39;23.51;52.58
73112;HTU21D;61301;51.956;5.876;2023-08-30T12:09:11;23.61;53.07
73112;HTU21D;61301;51.956;5.876;2023-08-30T12:11:37;23.47;52.53
73112;HTU21D;61301;51.956;5.876;2023-08-30T12:14:04;23.50;52.99
73112;HTU21D;61301;51.956;5.876;2023-08-30T12:16:30;23.28;52.28
73112;HTU21D;61301;51.956;5.876;2023-08-30T12:19:07;23.09;51.68
73112;HTU21D;61301;51.956;5.876;2023-08-30T12:21:39;22.88;51.61
73112;HTU21D;61301;51.956;5.876;2023-08-30T12:24:06;22.70;52.69
73112;HTU21D;61301;51.956;5.876;2023-08-30T12:26:32;22.65;53.00
73112;HTU21D;61301;51.956;5.876;2023-08-30T12:29:04;22.32;53.36
73112;HTU21D;61301;51.956;5.876;2023-08-30T12:31:32;22.23;53.55
73112;HTU21D;61301;51.956;5.876;2023-08-30T12:33:58;22.25;53.88
73112;HTU21D;61301;51.956;5.876;2023-08-30T12:36:24;22.35;54.04
73112;HTU21D;61301;51.956;5.876;2023-08-30T12:38:50;22.34;52.83
73112;HTU21D;61301;51.956;5.876;2023-08-30T12:41:17;22.36;52.85
73112;HTU21D;61301;51.956;5.876;2023-08-30T12:43:43;22.37;53.10
73112;HTU21D;61301;51.956;5.876;2023-08-30T12:46:09;22.52;53.25
73112;HTU21D;61301;51.956;5.876;2023-08-30T12:48:35;22.75;52.91
73112;HTU21D;61301;51.956;5.876;2023-08-30T12:51:01;22.73;52.56
73112;HTU21D;61301;51.956;5.876;2023-08-30T12:53:27;22.58;50.38
73112;HTU21D;61301;51.956;5.876;2023-08-30T12:55:53;22.58;50.71
73112;HTU21D;61301;51.956;5.876;2023-08-30T12:58:19;22.64;51.54
73112;HTU21D;61301;51.956;5.876;2023-08-30T13:00:45;22.63;51.87
73112;HTU21D;61301;51.956;5.876;2023-08-30T13:03:11;22.78;51.79
73112;HTU21D;61301;51.956;5.876;2023-08-30T13:05:37;22.67;51.54
73112;HTU21D;61301;51.956;5.876;2023-08-30T13:08:03;22.67;51.03
73112;HTU21D;61301;51.956;5.876;2023-08-30T13:10:29;22.86;49.74
73112;HTU21D;61301;51.956;5.876;2023-08-30T13:12:55;23.17;50.37
73112;HTU21D;61301;51.956;5.876;2023-08-30T13:15:22;23.40;49.39
73112;HTU21D;61301;51.956;5.876;2023-08-30T13:17:48;23.60;47.85
73112;HTU21D;61301;51.956;5.876;2023-08-30T13:20:15;23.65;48.70
73112;HTU21D;61301;51.956;5.876;2023-08-30T13:22:41;23.81;48.25
73112;HTU21D;61301;51.956;5.876;2023-08-30T13:25:07;23.91;48.53
73112;HTU21D;61301;51.956;5.876;2023-08-30T13:27:33;24.01;47.69
73112;HTU21D;61301;51.956;5.876;2023-08-30T13:29:59;23.98;47.25
73112;HTU21D;61301;51.956;5.876;2023-08-30T13:32:25;24.09;47.68
73112;HTU21D;61301;51.956;5.876;2023-08-30T13:34:52;24.31;46.29
73112;HTU21D;61301;51.956;5.876;2023-08-30T13:37:18;24.46;46.60
73112;HTU21D;61301;51.956;5.876;2023-08-30T13:39:44;24.71;46.62
73112;HTU21D;61301;51.956;5.876;2023-08-30T13:42:11;24.98;47.13
73112;HTU21D;61301;51.956;5.876;2023-08-30T13:44:37;25.23;46.42
73112;HTU21D;61301;51.956;5.876;2023-08-30T13:47:04;25.20;45.80
73112;HTU21D;61301;51.956;5.876;2023-08-30T13:49:30;25.14;43.63
73112;HTU21D;61301;51.956;5.876;2023-08-30T13:51:57;25.02;40.75
73112;HTU21D;61301;51.956;5.876;2023-08-30T13:54:23;24.90;41.17
73112;HTU21D;61301;51.956;5.876;2023-08-30T13:56:50;24.93;42.45
73112;HTU21D;61301;51.956;5.876;2023-08-30T13:59:16;25.05;43.93
73112;HTU21D;61301;51.956;5.876;2023-08-30T14:01:42;25.32;44.29
73112;HTU21D;61301;51.956;5.876;2023-08-30T14:04:08;25.56;44.69
73112;HTU21D;61301;51.956;5.876;2023-08-30T14:06:34;25.81;43.63
73112;HTU21D;61301;51.956;5.876;2023-08-30T14:09:01;25.83;40.34
73112;HTU21D;61301;51.956;5.876;2023-08-30T14:11:27;25.43;40.56
73112;HTU21D;61301;51.956;5.876;2023-08-30T14:13:53;25.24;40.64
73112;HTU21D;61301;51.956;5.876;2023-08-30T14:16:19;25.05;42.31
73112;HTU21D;61301;51.956;5.876;2023-08-30T14:18:45;24.91;42.72
73112;HTU21D;61301;51.956;5.876;2023-08-30T14:21:11;24.97;41.58
73112;HTU21D;61301;51.956;5.876;2023-08-30T14:23:37;25.04;42.28
73112;HTU21D;61301;51.956;5.876;2023-08-30T14:26:05;24.68;40.68
73112;HTU21D;61301;51.956;5.876;2023-08-30T14:28:36;24.39;40.20
73112;HTU21D;61301;51.956;5.876;2023-08-30T14:31:02;24.03;40.11
73112;HTU21D;61301;51.956;5.876;2023-08-30T14:33:30;24.00;40.75
73112;HTU21D;61301;51.956;5.876;2023-08-30T14:35:56;23.94;41.51
73112;HTU21D;61301;51.956;5.876;2023-08-30T14:38:23;24.02;41.10
73112;HTU21D;61301;51.956;5.876;2023-08-30T14:43:21;24.15;42.21
73112;HTU21D;61301;51.956;5.876;2023-08-30T14:45:47;24.15;42.39
73112;HTU21D;61301;51.956;5.876;2023-08-30T14:48:13;24.24;42.44
73112;HTU21D;61301;51.956;5.876;2023-08-30T14:50:39;24.23;41.82
73112;HTU21D;61301;51.956;5.876;2023-08-30T14:53:05;24.32;42.66
73112;HTU21D;61301;51.956;5.876;2023-08-30T14:55:32;24.55;43.13
73112;HTU21D;61301;51.956;5.876;2023-08-30T14:57:58;24.65;42.35
73112;HTU21D;61301;51.956;5.876;2023-08-30T15:00:24;24.79;42.99
73112;HTU21D;61301;51.956;5.876;2023-08-30T15:02:51;24.77;42.07
73112;HTU21D;61301;51.956;5.876;2023-08-30T15:05:17;24.56;42.10
73112;HTU21D;61301;51.956;5.876;2023-08-30T15:07:43;24.40;41.95
73112;HTU21D;61301;51.956;5.876;2023-08-30T15:10:10;24.08;40.94
73112;HTU21D;61301;51.956;5.876;2023-08-30T15:12:37;24.11;42.90
73112;HTU21D;61301;51.956;5.876;2023-08-30T15:15:03;23.80;43.29
73112;HTU21D;61301;51.956;5.876;2023-08-30T15:17:30;23.67;44.35
73112;HTU21D;61301;51.956;5.876;2023-08-30T15:19:56;23.56;43.88
73112;HTU21D;61301;51.956;5.876;2023-08-30T15:22:21;23.44;44.17
73112;HTU21D;61301;51.956;5.876;2023-08-30T15:24:47;23.55;44.35
73112;HTU21D;61301;51.956;5.876;2023-08-30T15:27:13;23.36;43.33
73112;HTU21D;61301;51.956;5.876;2023-08-30T15:29:39;23.08;44.15